Time;durP1;ratioP1;P1;durP2;ratioP2;P2;SDS_P1;SDS_P2;PMS_P1;PMS_P2;Temp;Humidity;BMP_temperature;BMP_pressure;BME280_temperature;BME280_humidity;BME280_pressure;Samples;Min_cycle;Max_cycle;Signal;HPM_P1;HPM_P2
2021/12/27 00:00:38;;;;;;;1999.90;999.90;;;;;;;;;;4982359;28;20034;-77
2021/12/27 00:03:04;;;;;;;1999.90;999.90;;;;;;;;;;4973254;28;20053;-77
2021/12/27 00:05:29;;;;;;;1999.90;999.90;;;;;;;;;;4980989;28;20053;-77
2021/12/27 00:07:55;;;;;;;1999.90;999.90;;;;;;;;;;5010826;28;20080;-77
2021/12/27 00:10:21;;;;;;;1999.90;999.90;;;;;;;;;;5010858;28;20034;-77
2021/12/27 00:12:46;;;;;;;1999.90;999.90;;;;;;;;;;4978271;28;20042;-77
2021/12/27 00:15:13;;;;;;;1224.80;525.42;;;;;;;;;;4978433;28;20034;-77
2021/12/27 00:17:40;;;;;;;1999.90;999.90;;;;;;;;;;4994238;28;20046;-77
2021/12/27 00:20:10;;;;;;;1999.90;999.90;;;;;;;;;;4978024;28;20039;-77
2021/12/27 00:22:36;;;;;;;1999.90;999.90;;;;;;;;;;4993951;28;20061;-77
2021/12/27 00:25:02;;;;;;;1999.90;999.90;;;;;;;;;;4994590;28;20128;-77
2021/12/27 00:27:27;;;;;;;1999.90;999.90;;;;;;;;;;5010579;28;20476;-77
2021/12/27 00:29:53;;;;;;;1172.25;527.20;;;;;;;;;;4978043;28;20030;-77
2021/12/27 00:32:19;;;;;;;1999.90;999.90;;;;;;;;;;4994116;28;20034;-77
2021/12/27 00:34:44;;;;;;;1999.90;999.90;;;;;;;;;;4965400;28;20113;-78
2021/12/27 00:37:10;;;;;;;1999.90;999.90;;;;;;;;;;4974873;28;20030;-78
2021/12/27 00:39:36;;;;;;;1999.90;999.90;;;;;;;;;;4977629;28;20377;-78
2021/12/27 00:42:01;;;;;;;1999.90;999.90;;;;;;;;;;4994165;28;20373;-78
2021/12/27 00:44:27;;;;;;;1999.90;999.90;;;;;;;;;;4994624;28;20034;-77
2021/12/27 00:46:52;;;;;;;1999.90;999.90;;;;;;;;;;4993730;28;20439;-78
2021/12/27 00:49:18;;;;;;;1999.90;999.90;;;;;;;;;;4993938;28;20041;-77
2021/12/27 00:51:43;;;;;;;1999.90;999.90;;;;;;;;;;4990227;28;20061;-77
2021/12/27 00:54:09;;;;;;;1565.43;756.13;;;;;;;;;;4977834;28;20041;-77
2021/12/27 00:56:34;;;;;;;1999.90;999.90;;;;;;;;;;4994281;28;20369;-77
2021/12/27 00:58:59;;;;;;;1999.90;999.90;;;;;;;;;;4978075;28;20503;-77
2021/12/27 01:01:25;;;;;;;1999.90;999.90;;;;;;;;;;4993719;28;20034;-77
2021/12/27 01:03:50;;;;;;;1999.90;999.90;;;;;;;;;;4993709;28;20401;-77
2021/12/27 01:06:16;;;;;;;1999.90;999.90;;;;;;;;;;4993963;28;20112;-77
2021/12/27 01:08:41;;;;;;;1999.90;999.90;;;;;;;;;;4993954;28;20116;-78
2021/12/27 01:13:59;;;;;;;1999.90;999.90;;;;;;;;;;4981279;28;20037;-77
2021/12/27 01:16:25;;;;;;;1999.90;999.90;;;;;;;;;;4980977;28;20030;-77
2021/12/27 01:18:50;;;;;;;1999.90;999.90;;;;;;;;;;4977343;28;20125;-77
2021/12/27 01:21:18;;;;;;;1999.90;999.90;;;;;;;;;;4993208;28;20297;-77
2021/12/27 01:23:43;;;;;;;1999.90;999.90;;;;;;;;;;4961515;28;20041;-77
2021/12/27 01:26:09;;;;;;;1999.90;999.90;;;;;;;;;;4977436;28;20028;-77
2021/12/27 01:28:34;;;;;;;1999.90;999.90;;;;;;;;;;4993944;28;20034;-77
2021/12/27 01:31:00;;;;;;;1999.90;999.90;;;;;;;;;;4993326;28;20022;-77
2021/12/27 01:33:25;;;;;;;1999.90;999.90;;;;;;;;;;4993571;28;20484;-78
2021/12/27 01:35:51;;;;;;;1999.90;999.90;;;;;;;;;;4962986;28;20771;-77
2021/12/27 01:38:17;;;;;;;1999.90;999.90;;;;;;;;;;4997704;28;20072;-77
2021/12/27 01:40:44;;;;;;;1999.90;999.90;;;;;;;;;;4981634;28;20057;-77
2021/12/27 01:43:11;;;;;;;1999.90;999.90;;;;;;;;;;4981179;28;20036;-77
2021/12/27 01:45:45;;;;;;;1999.90;999.90;;;;;;;;;;5013023;28;20049;-77
2021/12/27 01:48:10;;;;;;;1999.90;999.90;;;;;;;;;;4996523;28;20038;-77
2021/12/27 01:50:37;;;;;;;1999.90;999.90;;;;;;;;;;4996914;28;20062;-77
2021/12/27 01:53:03;;;;;;;1999.90;999.90;;;;;;;;;;4997185;28;20038;-77
2021/12/27 01:55:28;;;;;;;1999.90;999.90;;;;;;;;;;4964814;28;20030;-77
2021/12/27 01:57:54;;;;;;;1999.90;999.90;;;;;;;;;;4981069;28;20510;-77
2021/12/27 02:00:19;;;;;;;1999.90;999.90;;;;;;;;;;4997026;28;20041;-77
2021/12/27 02:02:45;;;;;;;1999.90;999.90;;;;;;;;;;4997373;28;20060;-77
2021/12/27 02:05:12;;;;;;;1999.90;999.90;;;;;;;;;;4980810;28;20026;-77
2021/12/27 02:07:38;;;;;;;1999.90;999.90;;;;;;;;;;4980419;28;20034;-77
2021/12/27 02:10:04;;;;;;;1999.90;999.90;;;;;;;;;;4981046;28;20044;-77
2021/12/27 02:12:30;;;;;;;1125.28;524.55;;;;;;;;;;4980996;28;20030;-77
2021/12/27 02:14:55;;;;;;;1999.90;999.90;;;;;;;;;;4997047;28;20034;-77
2021/12/27 02:17:21;;;;;;;1999.90;999.90;;;;;;;;;;4996109;28;20061;-77
2021/12/27 02:19:47;;;;;;;1999.90;999.90;;;;;;;;;;4996615;28;20380;-77
2021/12/27 02:22:13;;;;;;;1999.90;999.90;;;;;;;;;;4996455;28;20113;-77
2021/12/27 02:24:40;;;;;;;1999.90;999.90;;;;;;;;;;4977579;28;20118;-77
2021/12/27 02:27:12;;;;;;;1999.90;999.90;;;;;;;;;;5012290;28;20049;-77
2021/12/27 02:29:37;;;;;;;1999.90;999.90;;;;;;;;;;4981302;28;20037;-77
2021/12/27 02:32:03;;;;;;;1999.90;999.90;;;;;;;;;;4996092;28;20025;-77
2021/12/27 02:34:28;;;;;;;1999.90;999.90;;;;;;;;;;4969698;28;20385;-77
2021/12/27 02:36:54;;;;;;;1999.90;999.90;;;;;;;;;;4961094;28;20679;-77
2021/12/27 02:39:19;;;;;;;1999.90;999.90;;;;;;;;;;4978416;28;20049;-77
2021/12/27 02:41:45;;;;;;;1999.90;999.90;;;;;;;;;;5012500;28;20435;-77
2021/12/27 02:44:10;;;;;;;1999.90;999.90;;;;;;;;;;4992976;28;20389;-77
2021/12/27 02:46:36;;;;;;;1999.90;999.90;;;;;;;;;;4976099;28;20034;-77
2021/12/27 02:49:01;;;;;;;1999.90;999.90;;;;;;;;;;4995673;28;20036;-77
2021/12/27 02:51:27;;;;;;;1999.90;999.90;;;;;;;;;;4996157;28;20046;-77
2021/12/27 02:53:52;;;;;;;1999.90;999.90;;;;;;;;;;4979940;28;20041;-77
2021/12/27 02:56:19;;;;;;;1999.90;999.90;;;;;;;;;;4980213;28;20042;-77
2021/12/27 02:58:45;;;;;;;1999.90;999.90;;;;;;;;;;4996216;28;20030;-77
2021/12/27 03:01:13;;;;;;;1999.90;999.90;;;;;;;;;;4974875;28;20042;-77
2021/12/27 03:03:38;;;;;;;1999.90;999.90;;;;;;;;;;4974518;28;20092;-77
2021/12/27 03:06:05;;;;;;;1999.90;999.90;;;;;;;;;;4988037;28;20034;-77
2021/12/27 03:08:31;;;;;;;1999.90;999.90;;;;;;;;;;4995976;28;20073;-77
2021/12/27 03:10:57;;;;;;;1999.90;999.90;;;;;;;;;;4979531;28;20153;-77
2021/12/27 03:13:33;;;;;;;1999.90;999.90;;;;;;;;;;4995755;28;20080;-77
2021/12/27 03:16:06;;;;;;;1999.90;999.90;;;;;;;;;;4997329;28;20029;-77
2021/12/27 03:18:35;;;;;;;1999.90;999.90;;;;;;;;;;4980460;28;20052;-77
2021/12/27 03:21:04;;;;;;;1999.90;999.90;;;;;;;;;;4976698;28;20106;-77
2021/12/27 03:23:29;;;;;;;1999.90;999.90;;;;;;;;;;4976753;28;20041;-77
2021/12/27 03:25:55;;;;;;;1999.90;999.90;;;;;;;;;;4979466;28;20030;-77
2021/12/27 03:28:20;;;;;;;1999.90;999.90;;;;;;;;;;4995291;28;20427;-77
2021/12/27 03:30:46;;;;;;;1999.90;999.90;;;;;;;;;;4995488;28;20105;-77
2021/12/27 03:33:13;;;;;;;1999.90;999.90;;;;;;;;;;4992729;28;20069;-77
2021/12/27 03:35:41;;;;;;;1999.90;999.90;;;;;;;;;;4995486;28;20038;-77
2021/12/27 03:38:09;;;;;;;1999.90;999.90;;;;;;;;;;4995584;28;20060;-78
2021/12/27 03:40:35;;;;;;;1999.90;999.90;;;;;;;;;;5011498;28;20048;-77
2021/12/27 03:43:00;;;;;;;1999.90;999.90;;;;;;;;;;4994955;28;20018;-77
2021/12/27 03:45:36;;;;;;;1999.90;999.90;;;;;;;;;;4978362;28;20054;-77
2021/12/27 03:48:03;;;;;;;1999.90;999.90;;;;;;;;;;4966271;28;20038;-78
2021/12/27 03:50:29;;;;;;;1999.90;999.90;;;;;;;;;;4992354;28;20038;-78
2021/12/27 03:52:56;;;;;;;1999.90;999.90;;;;;;;;;;4975822;28;20027;-77
2021/12/27 03:55:22;;;;;;;1999.90;999.90;;;;;;;;;;4975622;28;20061;-77
2021/12/27 03:57:53;;;;;;;1999.90;999.90;;;;;;;;;;4984539;28;20436;-77
2021/12/27 04:02:55;;;;;;;1999.90;999.90;;;;;;;;;;4995403;28;20061;-77
2021/12/27 04:05:22;;;;;;;1999.90;999.90;;;;;;;;;;4994957;28;20037;-77
2021/12/27 04:07:55;;;;;;;1999.90;999.90;;;;;;;;;;5010785;28;20087;-77
2021/12/27 04:10:21;;;;;;;1999.90;999.90;;;;;;;;;;4996323;28;20037;-77
2021/12/27 04:12:46;;;;;;;1999.90;999.90;;;;;;;;;;5010646;28;20474;-77
2021/12/27 04:15:12;;;;;;;1999.90;999.90;;;;;;;;;;4976737;28;20046;-78
2021/12/27 04:17:37;;;;;;;1999.90;999.90;;;;;;;;;;5008787;28;20033;-77
2021/12/27 04:20:03;;;;;;;1999.90;999.90;;;;;;;;;;4993226;28;20049;-77
2021/12/27 04:22:33;;;;;;;1999.90;999.90;;;;;;;;;;4992537;28;20148;-77
2021/12/27 04:25:02;;;;;;;1653.45;772.28;;;;;;;;;;4977053;28;20092;-77
2021/12/27 04:27:27;;;;;;;1999.90;999.90;;;;;;;;;;5008500;28;20033;-77
2021/12/27 04:29:53;;;;;;;1999.90;999.90;;;;;;;;;;4976892;28;20392;-77
2021/12/27 04:32:18;;;;;;;1999.90;999.90;;;;;;;;;;4992522;28;20037;-77
2021/12/27 04:34:43;;;;;;;1999.90;999.90;;;;;;;;;;5010086;28;20100;-77
2021/12/27 04:37:09;;;;;;;1999.90;999.90;;;;;;;;;;4973442;28;20034;-77
2021/12/27 04:39:34;;;;;;;1999.90;999.90;;;;;;;;;;4976624;28;20033;-78
2021/12/27 04:42:00;;;;;;;1999.90;999.90;;;;;;;;;;4976248;28;20026;-77
2021/12/27 04:44:25;;;;;;;1999.90;999.90;;;;;;;;;;4973688;28;20053;-77
2021/12/27 04:46:51;;;;;;;1999.90;999.90;;;;;;;;;;4974935;28;20084;-78
2021/12/27 04:49:16;;;;;;;1999.90;999.90;;;;;;;;;;4977743;28;20042;-77
2021/12/27 04:51:43;;;;;;;1999.90;999.90;;;;;;;;;;4993850;28;20045;-78
2021/12/27 04:54:09;;;;;;;1999.90;999.90;;;;;;;;;;4978657;28;20042;-77
2021/12/27 04:56:35;;;;;;;1999.90;999.90;;;;;;;;;;4975045;28;20034;-77
2021/12/27 04:59:00;;;;;;;1999.90;999.90;;;;;;;;;;4990801;28;20062;-77
2021/12/27 05:01:25;;;;;;;1999.90;999.90;;;;;;;;;;4974574;28;20113;-77
2021/12/27 05:03:51;;;;;;;1999.90;999.90;;;;;;;;;;4977778;28;20046;-77
2021/12/27 05:06:17;;;;;;;1999.90;999.90;;;;;;;;;;4993542;28;20500;-77
2021/12/27 05:08:42;;;;;;;1999.90;999.90;;;;;;;;;;4974930;28;20038;-77
2021/12/27 05:11:08;;;;;;;1999.90;999.90;;;;;;;;;;4992574;28;20034;-77
2021/12/27 05:13:34;;;;;;;1999.90;999.90;;;;;;;;;;4994764;28;20030;-77
2021/12/27 05:16:00;;;;;;;1999.90;999.90;;;;;;;;;;4989214;28;20480;-77
2021/12/27 05:18:25;;;;;;;1999.90;999.90;;;;;;;;;;4965672;28;20404;-77
2021/12/27 05:20:51;;;;;;;1999.90;999.90;;;;;;;;;;4981528;28;20030;-77
2021/12/27 05:23:16;;;;;;;1999.90;999.90;;;;;;;;;;4997899;28;20069;-77
2021/12/27 05:25:42;;;;;;;1999.90;999.90;;;;;;;;;;4981083;28;20400;-77
2021/12/27 05:28:09;;;;;;;1999.90;999.90;;;;;;;;;;5013934;28;20092;-77
2021/12/27 05:30:35;;;;;;;1567.97;760.17;;;;;;;;;;5013283;28;20045;-77
2021/12/27 05:33:00;;;;;;;1999.90;999.90;;;;;;;;;;5013633;28;20034;-77
2021/12/27 05:35:26;;;;;;;1999.90;999.90;;;;;;;;;;4979285;28;20034;-77
2021/12/27 05:37:51;;;;;;;1999.90;999.90;;;;;;;;;;4986347;28;20222;-77
2021/12/27 05:40:18;;;;;;;1999.90;999.90;;;;;;;;;;4981388;28;20099;-77
2021/12/27 05:42:44;;;;;;;1999.90;999.90;;;;;;;;;;4997702;28;20034;-77
2021/12/27 05:45:10;;;;;;;1999.90;999.90;;;;;;;;;;4997243;28;20373;-77
2021/12/27 05:47:35;;;;;;;1999.90;999.90;;;;;;;;;;4997326;28;20121;-77
2021/12/27 05:50:01;;;;;;;1999.90;999.90;;;;;;;;;;4980798;28;20148;-77
2021/12/27 05:52:27;;;;;;;1999.90;999.90;;;;;;;;;;4964853;28;20053;-77
2021/12/27 05:54:52;;;;;;;1999.90;999.90;;;;;;;;;;4981027;28;20040;-77
2021/12/27 05:57:19;;;;;;;1999.90;999.90;;;;;;;;;;4997339;28;20037;-77
2021/12/27 05:59:45;;;;;;;1999.90;999.90;;;;;;;;;;4981145;28;20022;-77
2021/12/27 06:02:10;;;;;;;1999.90;999.90;;;;;;;;;;4980686;28;20088;-77
2021/12/27 06:04:36;;;;;;;1999.90;999.90;;;;;;;;;;4997246;28;20026;-78
2021/12/27 06:07:02;;;;;;;1999.90;999.90;;;;;;;;;;4981249;28;20029;-77
2021/12/27 06:09:27;;;;;;;1999.90;999.90;;;;;;;;;;5013495;28;20049;-77
2021/12/27 06:11:53;;;;;;;1999.90;999.90;;;;;;;;;;4996899;28;20042;-77
2021/12/27 06:14:18;;;;;;;1999.90;999.90;;;;;;;;;;4997185;28;20034;-77
2021/12/27 06:16:43;;;;;;;1999.90;999.90;;;;;;;;;;4977114;28;20121;-77
2021/12/27 06:19:09;;;;;;;1999.90;999.90;;;;;;;;;;4977165;28;20369;-78
2021/12/27 06:21:36;;;;;;;1999.90;999.90;;;;;;;;;;4979702;28;20415;-77
2021/12/27 06:24:02;;;;;;;1999.90;999.90;;;;;;;;;;4997078;28;20065;-77
2021/12/27 06:26:27;;;;;;;1999.90;999.90;;;;;;;;;;4977606;28;20492;-77
2021/12/27 06:28:53;;;;;;;1999.90;999.90;;;;;;;;;;4980285;28;20033;-77
2021/12/27 06:31:19;;;;;;;1999.90;999.90;;;;;;;;;;4996249;28;20494;-77
2021/12/27 06:33:45;;;;;;;1999.90;999.90;;;;;;;;;;4996365;28;20112;-77
2021/12/27 06:36:10;;;;;;;1999.90;999.90;;;;;;;;;;4997030;28;20030;-77
2021/12/27 06:38:36;;;;;;;1999.90;999.90;;;;;;;;;;4976650;28;20385;-77
2021/12/27 06:41:02;;;;;;;1999.90;999.90;;;;;;;;;;4977043;28;20069;-77
2021/12/27 06:43:30;;;;;;;1999.90;999.90;;;;;;;;;;4993048;28;20101;-77
2021/12/27 06:45:56;;;;;;;1999.90;999.90;;;;;;;;;;4990234;28;20569;-77
2021/12/27 06:48:21;;;;;;;1999.90;999.90;;;;;;;;;;5012506;28;20109;-77
2021/12/27 06:50:46;;;;;;;1999.90;999.90;;;;;;;;;;4979703;28;20073;-77
2021/12/27 06:53:12;;;;;;;1999.90;999.90;;;;;;;;;;5012395;28;20396;-77
2021/12/27 06:55:37;;;;;;;1999.90;999.90;;;;;;;;;;4979762;28;20030;-77
2021/12/27 06:58:03;;;;;;;1999.90;999.90;;;;;;;;;;4995794;28;20040;-78
2021/12/27 07:00:28;;;;;;;1999.90;999.90;;;;;;;;;;4995822;28;20096;-77
2021/12/27 07:02:54;;;;;;;1999.90;999.90;;;;;;;;;;5011890;28;20369;-77
2021/12/27 07:05:19;;;;;;;1999.90;999.90;;;;;;;;;;4980177;28;20038;-78
2021/12/27 07:07:45;;;;;;;1999.90;999.90;;;;;;;;;;4963249;28;20046;-77
2021/12/27 07:10:13;;;;;;;1999.90;999.90;;;;;;;;;;4996032;28;20495;-77
2021/12/27 07:12:38;;;;;;;1999.90;999.90;;;;;;;;;;4980108;28;20081;-77
2021/12/27 07:15:04;;;;;;;1568.20;758.03;;;;;;;;;;4979772;28;20041;-77
2021/12/27 07:17:30;;;;;;;1999.90;999.90;;;;;;;;;;4979340;28;20025;-77
2021/12/27 07:19:55;;;;;;;1999.90;999.90;;;;;;;;;;5011846;28;20034;-77
2021/12/27 07:22:21;;;;;;;1999.90;999.90;;;;;;;;;;5011655;28;20056;-77
2021/12/27 07:24:46;;;;;;;1999.90;999.90;;;;;;;;;;5012395;28;20045;-78
2021/12/27 07:27:12;;;;;;;1061.22;513.33;;;;;;;;;;4976951;28;20050;-77
2021/12/27 07:29:37;;;;;;;1999.90;999.90;;;;;;;;;;5010718;28;20046;-77
2021/12/27 07:32:03;;;;;;;1999.90;999.90;;;;;;;;;;4978564;28;20026;-78
2021/12/27 07:34:28;;;;;;;1999.90;999.90;;;;;;;;;;5009504;28;20038;-76
2021/12/27 07:36:55;;;;;;;1999.90;999.90;;;;;;;;;;4959790;28;20038;-76
2021/12/27 07:39:20;;;;;;;1999.90;999.90;;;;;;;;;;4999673;28;20030;-76
2021/12/27 07:41:46;;;;;;;1999.90;999.90;;;;;;;;;;4979294;28;20034;-76
2021/12/27 07:44:14;;;;;;;1999.90;999.90;;;;;;;;;;5011556;28;20038;-76
2021/12/27 07:46:41;;;;;;;1999.90;999.90;;;;;;;;;;4996118;28;20026;-76
2021/12/27 07:49:08;;;;;;;1999.90;999.90;;;;;;;;;;4995386;28;20034;-76
2021/12/27 07:51:34;;;;;;;1999.90;999.90;;;;;;;;;;4975319;28;20038;-76
2021/12/27 07:53:59;;;;;;;1999.90;999.90;;;;;;;;;;4959747;28;20038;-76
2021/12/27 07:56:25;;;;;;;1999.90;999.90;;;;;;;;;;4981762;28;20038;-76
2021/12/27 07:58:50;;;;;;;1999.90;999.90;;;;;;;;;;4994121;28;20092;-77
2021/12/27 08:01:16;;;;;;;1999.90;999.90;;;;;;;;;;4978652;28;20084;-76
2021/12/27 08:03:42;;;;;;;1999.90;999.90;;;;;;;;;;4995375;28;20511;-76
2021/12/27 08:06:07;;;;;;;1999.90;999.90;;;;;;;;;;4994075;28;20041;-75
2021/12/27 08:08:33;;;;;;;1999.90;999.90;;;;;;;;;;4978836;28;20086;-75
2021/12/27 08:10:59;;;;;;;1999.90;999.90;;;;;;;;;;4994951;28;20076;-75
2021/12/27 08:13:24;;;;;;;1999.90;999.90;;;;;;;;;;4994779;28;20506;-76
2021/12/27 08:15:49;;;;;;;1999.90;999.90;;;;;;;;;;4990990;28;20396;-76
2021/12/27 08:18:15;;;;;;;1999.90;999.90;;;;;;;;;;4977401;28;20030;-76
2021/12/27 08:20:40;;;;;;;1999.90;999.90;;;;;;;;;;4977012;28;20380;-82
2021/12/27 08:23:06;;;;;;;1999.90;999.90;;;;;;;;;;5008774;28;20442;-77
2021/12/27 08:25:33;;;;;;;1999.90;999.90;;;;;;;;;;4994748;28;20639;-78
2021/12/27 08:27:58;;;;;;;1999.90;999.90;;;;;;;;;;4994355;28;20038;-78
2021/12/27 08:30:24;;;;;;;1999.90;999.90;;;;;;;;;;4994311;28;20399;-78
2021/12/27 08:32:49;;;;;;;1999.90;999.90;;;;;;;;;;5011239;28;20041;-77
2021/12/27 08:35:15;;;;;;;1999.90;999.90;;;;;;;;;;4974996;28;20054;-77
2021/12/27 08:37:41;;;;;;;1999.90;999.90;;;;;;;;;;4959350;28;20030;-77
2021/12/27 08:40:07;;;;;;;1999.90;999.90;;;;;;;;;;4991393;28;20548;-78
2021/12/27 08:42:33;;;;;;;1999.90;999.90;;;;;;;;;;4977748;28;20030;-80
2021/12/27 08:44:59;;;;;;;1999.90;999.90;;;;;;;;;;4993893;28;20053;-77
2021/12/27 08:47:24;;;;;;;1999.90;999.90;;;;;;;;;;4977151;28;20118;-77
2021/12/27 08:49:50;;;;;;;1999.90;999.90;;;;;;;;;;4990454;28;20509;-76
2021/12/27 08:52:15;;;;;;;1999.90;999.90;;;;;;;;;;4974661;28;20074;-76
2021/12/27 08:54:41;;;;;;;1999.90;999.90;;;;;;;;;;4942860;28;20125;-76
2021/12/27 08:57:09;;;;;;;1999.90;999.90;;;;;;;;;;4958911;28;20066;-76
2021/12/27 08:59:37;;;;;;;1999.90;999.90;;;;;;;;;;4965679;28;20034;-76
2021/12/27 09:02:04;;;;;;;1999.90;999.90;;;;;;;;;;4994589;28;20392;-76
2021/12/27 09:04:29;;;;;;;1999.90;999.90;;;;;;;;;;4992122;28;20480;-76
2021/12/27 09:06:55;;;;;;;1999.90;999.90;;;;;;;;;;4978156;28;20121;-76
2021/12/27 09:09:21;;;;;;;1999.90;999.90;;;;;;;;;;4977880;28;20041;-76
2021/12/27 09:11:46;;;;;;;1602.63;763.90;;;;;;;;;;4994029;28;20038;-76
2021/12/27 09:14:12;;;;;;;1999.90;999.90;;;;;;;;;;4994226;28;20038;-76
2021/12/27 09:16:38;;;;;;;1999.90;999.90;;;;;;;;;;4993856;28;20068;-76
2021/12/27 09:19:03;;;;;;;1999.90;999.90;;;;;;;;;;4977501;28;20038;-76
2021/12/27 09:21:28;;;;;;;1999.90;999.90;;;;;;;;;;4993884;28;20082;-76
2021/12/27 09:23:54;;;;;;;1999.90;999.90;;;;;;;;;;4977846;28;20045;-76
2021/12/27 09:26:19;;;;;;;1999.90;999.90;;;;;;;;;;4977652;28;20484;-76
2021/12/27 09:28:45;;;;;;;1242.20;538.63;;;;;;;;;;5010183;28;20042;-76
2021/12/27 09:31:10;;;;;;;1999.90;999.90;;;;;;;;;;5009841;28;20058;-75
2021/12/27 09:33:36;;;;;;;1999.90;999.90;;;;;;;;;;4990513;28;20065;-76
2021/12/27 09:36:02;;;;;;;1734.07;797.83;;;;;;;;;;4990591;28;20722;-76
2021/12/27 09:38:27;;;;;;;1075.20;319.05;;;;;;;;;;4990690;28;20038;-76
2021/12/27 09:40:52;;;;;;;1999.90;999.90;;;;;;;;;;4974382;28;20129;-79
2021/12/27 09:43:18;;;;;;;1999.90;999.90;;;;;;;;;;4965526;28;20042;-81
2021/12/27 09:45:43;;;;;;;1999.90;999.90;;;;;;;;;;4977788;28;20053;-82
2021/12/27 09:48:09;;;;;;;1999.90;999.90;;;;;;;;;;4977449;28;20407;-82
2021/12/27 09:50:45;;;;;;;1999.90;999.90;;;;;;;;;;4993460;28;20037;-79
2021/12/27 09:53:11;;;;;;;1999.90;999.90;;;;;;;;;;4978398;28;20475;-79
2021/12/27 09:55:36;;;;;;;1999.90;999.90;;;;;;;;;;4992192;28;20046;-80
2021/12/27 09:58:01;;;;;;;1999.90;999.90;;;;;;;;;;4995412;28;20038;-80
2021/12/27 10:00:27;;;;;;;1999.90;999.90;;;;;;;;;;4997230;28;20125;-80
2021/12/27 10:02:53;;;;;;;1999.90;999.90;;;;;;;;;;4996157;28;20081;-79
2021/12/27 10:05:20;;;;;;;1999.90;999.90;;;;;;;;;;4980191;28;20420;-80
2021/12/27 10:07:46;;;;;;;1999.90;999.90;;;;;;;;;;4996586;28;20057;-79
2021/12/27 10:10:11;;;;;;;1999.90;999.90;;;;;;;;;;4996942;28;20468;-80
2021/12/27 10:12:37;;;;;;;1999.90;999.90;;;;;;;;;;4996321;28;20034;-79
2021/12/27 10:15:05;;;;;;;1999.90;999.90;;;;;;;;;;4995895;28;20029;-77
2021/12/27 10:17:31;;;;;;;1999.90;999.90;;;;;;;;;;4996761;28;20034;-77
2021/12/27 10:19:57;;;;;;;1999.90;999.90;;;;;;;;;;4997219;28;20383;-77
2021/12/27 10:22:23;;;;;;;1999.90;999.90;;;;;;;;;;4980902;28;20046;-77
2021/12/27 10:24:51;;;;;;;1999.90;999.90;;;;;;;;;;4980313;28;20052;-77
2021/12/27 10:27:17;;;;;;;1999.90;999.90;;;;;;;;;;4977707;28;20042;-79
2021/12/27 10:29:43;;;;;;;1999.90;999.90;;;;;;;;;;4961115;28;20023;-80
2021/12/27 10:32:14;;;;;;;1999.90;999.90;;;;;;;;;;4971296;28;20041;-79
2021/12/27 10:34:47;;;;;;;1999.90;999.90;;;;;;;;;;4977923;28;20034;-79
2021/12/27 10:37:12;;;;;;;;;;;;;;;;;;4993972;28;20065;-79
2021/12/27 10:39:52;;;;;;;1999.90;999.90;;;;;;;;;;4993412;28;20258;-79
2021/12/27 10:42:45;;;;;;;1999.90;999.90;;;;;;;;;;4945836;28;20030;-78
2021/12/27 10:45:19;;;;;;;1999.90;999.90;;;;;;;;;;4979976;28;20049;-79
2021/12/27 10:47:45;;;;;;;1999.90;999.90;;;;;;;;;;4961151;28;20031;-79
2021/12/27 10:50:25;;;;;;;1999.90;999.90;;;;;;;;;;4993306;28;20049;-79
2021/12/27 10:52:54;;;;;;;1999.90;999.90;;;;;;;;;;4967068;28;20030;-79
2021/12/27 10:55:39;;;;;;;1999.90;999.90;;;;;;;;;;4976982;28;20035;-79
2021/12/27 10:58:18;;;;;;;1999.90;999.90;;;;;;;;;;4993167;28;20384;-79
2021/12/27 11:00:45;;;;;;;1999.90;999.90;;;;;;;;;;4992783;28;20035;-79
2021/12/27 11:03:31;;;;;;;1999.90;999.90;;;;;;;;;;4980214;28;20117;-79
2021/12/27 11:05:57;;;;;;;1999.90;999.90;;;;;;;;;;5008604;28;20128;-79
2021/12/27 11:08:22;;;;;;;1999.90;999.90;;;;;;;;;;4979833;28;20026;-79
2021/12/27 11:10:48;;;;;;;1999.90;999.90;;;;;;;;;;4996412;28;20117;-79
2021/12/27 11:13:13;;;;;;;1999.90;999.90;;;;;;;;;;4996015;28;20065;-79
2021/12/27 11:15:40;;;;;;;1999.90;999.90;;;;;;;;;;4992531;28;20061;-79
2021/12/27 11:18:07;;;;;;;1999.90;999.90;;;;;;;;;;4976766;28;20405;-79
2021/12/27 11:20:34;;;;;;;1999.90;999.90;;;;;;;;;;4960688;28;20069;-80
2021/12/27 11:23:00;;;;;;;1999.90;999.90;;;;;;;;;;4944067;28;20468;-79
2021/12/27 11:25:37;;;;;;;1999.90;999.90;;;;;;;;;;4960619;28;20574;-79
2021/12/27 11:28:03;;;;;;;1999.90;999.90;;;;;;;;;;4976220;28;20088;-79
2021/12/27 11:30:31;;;;;;;1999.90;999.90;;;;;;;;;;4976406;28;20062;-79
2021/12/27 11:33:04;;;;;;;1999.90;999.90;;;;;;;;;;4992379;28;20034;-79
2021/12/27 11:35:35;;;;;;;1999.90;999.90;;;;;;;;;;4991728;28;20034;-79
2021/12/27 11:38:01;;;;;;;1999.90;999.90;;;;;;;;;;4960179;28;20037;-79
2021/12/27 11:40:38;;;;;;;1999.90;999.90;;;;;;;;;;4976248;28;20034;-79
2021/12/27 11:43:05;;;;;;;1999.90;999.90;;;;;;;;;;4991963;28;20037;-78
2021/12/27 11:45:46;;;;;;;1999.90;999.90;;;;;;;;;;4975922;28;20046;-79
2021/12/27 11:48:16;;;;;;;1999.90;999.90;;;;;;;;;;5008233;28;20088;-79
2021/12/27 11:50:57;;;;;;;1999.90;999.90;;;;;;;;;;4991898;28;20030;-78
2021/12/27 11:53:27;;;;;;;1999.90;999.90;;;;;;;;;;4993157;28;20161;-79
2021/12/27 11:55:52;;;;;;;1999.90;999.90;;;;;;;;;;4975847;28;20041;-79
2021/12/27 11:58:39;;;;;;;1999.90;999.90;;;;;;;;;;4975523;28;20030;-78
2021/12/27 12:01:07;;;;;;;1999.90;999.90;;;;;;;;;;4975694;28;20073;-79
2021/12/27 12:03:40;;;;;;;1999.90;999.90;;;;;;;;;;4979029;28;20034;-78
2021/12/27 12:06:06;;;;;;;1999.90;999.90;;;;;;;;;;4979201;28;20042;-78
2021/12/27 12:08:37;;;;;;;1999.90;999.90;;;;;;;;;;4995138;28;20032;-78
2021/12/27 12:11:07;;;;;;;1999.90;999.90;;;;;;;;;;5011548;28;20484;-78
2021/12/27 12:13:42;;;;;;;1999.90;999.90;;;;;;;;;;4995060;28;20041;-79
2021/12/27 12:16:12;;;;;;;1999.90;999.90;;;;;;;;;;5011047;28;20026;-79
2021/12/27 12:18:43;;;;;;;1999.90;999.90;;;;;;;;;;4994138;28;20034;-78
2021/12/27 12:21:33;;;;;;;1999.90;999.90;;;;;;;;;;4995119;28;20078;-78
2021/12/27 12:24:03;;;;;;;1999.90;999.90;;;;;;;;;;5011317;28;20069;-79
2021/12/27 12:26:28;;;;;;;1999.90;999.90;;;;;;;;;;5010621;28;20076;-79
2021/12/27 12:29:00;;;;;;;1999.90;999.90;;;;;;;;;;4978732;28;20042;-79
2021/12/27 12:31:31;;;;;;;1999.90;999.90;;;;;;;;;;4993238;28;20048;-79
2021/12/27 12:34:07;;;;;;;1999.90;999.90;;;;;;;;;;4973785;28;20488;-79
2021/12/27 12:36:46;;;;;;;1999.90;999.90;;;;;;;;;;4973792;28;20046;-79
2021/12/27 12:39:12;;;;;;;1999.90;999.90;;;;;;;;;;4974016;28;20065;-79
2021/12/27 12:41:38;;;;;;;1999.90;999.90;;;;;;;;;;4957716;28;20034;-79
2021/12/27 12:44:03;;;;;;;1999.90;999.90;;;;;;;;;;4973774;28;20050;-79
2021/12/27 12:46:38;;;;;;;1999.90;999.90;;;;;;;;;;4957798;28;20030;-79
2021/12/27 12:49:11;;;;;;;1999.90;999.90;;;;;;;;;;4959028;28;20046;-79
2021/12/27 12:51:42;;;;;;;1999.90;999.90;;;;;;;;;;4957833;28;20081;-79
2021/12/27 12:54:23;;;;;;;1999.90;999.90;;;;;;;;;;4957835;28;20046;-79
2021/12/27 12:56:50;;;;;;;1999.90;999.90;;;;;;;;;;4975729;28;20030;-79
2021/12/27 12:59:23;;;;;;;1999.90;999.90;;;;;;;;;;4973641;28;20101;-79
2021/12/27 13:01:54;;;;;;;1999.90;999.90;;;;;;;;;;4974467;28;20038;-79
2021/12/27 13:04:20;;;;;;;1999.90;999.90;;;;;;;;;;4974755;28;20038;-78
2021/12/27 13:06:46;;;;;;;1999.90;999.90;;;;;;;;;;4977101;28;20053;-79
2021/12/27 13:09:11;;;;;;;1999.90;999.90;;;;;;;;;;4990447;28;20022;-79
2021/12/27 13:11:38;;;;;;;1999.90;999.90;;;;;;;;;;4974612;28;20038;-78
2021/12/27 13:14:04;;;;;;;1999.90;999.90;;;;;;;;;;4988125;28;20042;-79
2021/12/27 13:16:30;;;;;;;1999.90;999.90;;;;;;;;;;5007728;28;20041;-79
2021/12/27 13:18:55;;;;;;;1999.90;999.90;;;;;;;;;;4960437;28;20481;-78
2021/12/27 13:21:21;;;;;;;1999.90;999.90;;;;;;;;;;5008688;28;20076;-79
2021/12/27 13:23:46;;;;;;;1999.90;999.90;;;;;;;;;;4993422;28;20177;-79
2021/12/27 13:26:13;;;;;;;1999.90;999.90;;;;;;;;;;4974397;28;20038;-79
2021/12/27 13:28:42;;;;;;;1999.90;999.90;;;;;;;;;;4964974;28;20060;-79
2021/12/27 13:31:08;;;;;;;1999.90;999.90;;;;;;;;;;4994504;28;20049;-79
2021/12/27 13:33:47;;;;;;;1999.90;999.90;;;;;;;;;;4981456;28;20030;-79
2021/12/27 13:36:13;;;;;;;1999.90;999.90;;;;;;;;;;4981883;28;20392;-80
2021/12/27 13:38:57;;;;;;;1999.90;999.90;;;;;;;;;;4981058;28;20026;-79
2021/12/27 13:41:24;;;;;;;1215.38;521.40;;;;;;;;;;4983477;28;20117;-80
2021/12/27 13:44:00;;;;;;;1999.90;999.90;;;;;;;;;;4981916;28;20038;-80
2021/12/27 13:46:31;;;;;;;1999.90;999.90;;;;;;;;;;4981213;28;20037;-80